Pennock, Minnesota
Current Conditions -  °F | °C
As of 11:55 AM on Saturday 25 Oct 2014 (Local Time) from KBDH Reporting Station
Clear Clear  
Wind Chill: 57°   Ceiling: Unl
Heat Index: 57°   Visibility: 10mi
Dew Point: 32°   Wind: 16mph
Humidity: 38%   Direction: 320°NW
Pressure: 30.13"   Gusts: 21mph
Location:  45.15°N, 95.18°W
Report Text: KBDH 251655Z AUTO 32014G18KT 10SM CLR 14/00 A3013 RMK AO2
Loading
Personal Weather Stations






























Interactive Weather Map
Tropical Storm Tracking
New forecast layout! Learn more

10-Day Weather Forecast

Advertisements
Track Severe Weather on mobile